Time;durP1;ratioP1;P1;durP2;ratioP2;P2;SDS_P1;SDS_P2;PMS_P1;PMS_P2;Temp;Humidity;BMP_temperature;BMP_pressure;BME280_temperature;BME280_humidity;BME280_pressure;Samples;Min_cycle;Max_cycle;Signal;HPM_P1;HPM_P2
2021/10/22 00:00:28;;;;;;;5.25;3.05;;;;;;;11.89;71.13;95427.69;1778835;79;21018;-73
2021/10/22 00:02:57;;;;;;;4.05;3.10;;;;;;;11.84;71.38;95429.13;1781267;79;21516;-72
2021/10/22 00:05:23;;;;;;;3.72;2.90;;;;;;;11.81;71.84;95429.19;1793876;79;21046;-73
2021/10/22 00:07:50;;;;;;;3.37;2.80;;;;;;;11.75;72.00;95428.49;1791703;79;21083;-73
2021/10/22 00:10:17;;;;;;;3.27;2.98;;;;;;;11.79;71.96;95426.16;1781801;79;20971;-73
2021/10/22 00:12:43;;;;;;;7.00;6.00;;;;;;;11.79;71.98;95433.67;1798773;79;21091;-73
2021/10/22 00:15:11;;;;;;;3.27;2.77;;;;;;;11.81;72.54;95444.18;1794029;79;21493;-74
2021/10/22 00:17:38;;;;;;;3.25;2.83;;;;;;;11.81;72.94;95449.47;1802750;79;21003;-74
2021/10/22 00:20:08;;;;;;;3.65;2.62;;;;;;;11.82;73.11;95450.77;1793071;79;21508;-73
2021/10/22 00:22:37;;;;;;;2.85;2.50;;;;;;;11.84;73.61;95462.17;1806912;79;21156;-74
2021/10/22 00:25:05;;;;;;;5.67;3.73;;;;;;;11.87;73.53;95463.44;1805717;79;21018;-74
2021/10/22 00:27:32;;;;;;;9.35;3.33;;;;;;;11.94;73.21;95468.56;1788547;79;21053;-73
2021/10/22 00:29:59;;;;;;;8.20;3.37;;;;;;;11.98;72.83;95468.45;1779604;79;21086;-73
2021/10/22 00:32:27;;;;;;;4.90;3.00;;;;;;;12.04;73.10;95460.80;1801675;79;21007;-74
2021/10/22 00:34:54;;;;;;;3.22;2.72;;;;;;;12.04;75.14;95468.27;1788228;79;21010;-74
2021/10/22 00:37:21;;;;;;;6.47;3.37;;;;;;;12.04;74.15;95465.63;1799890;79;20998;-74
2021/10/22 00:39:48;;;;;;;4.30;3.22;;;;;;;12.03;74.66;95467.01;1798589;79;21576;-73
2021/10/22 00:42:17;;;;;;;5.83;3.83;;;;;;;12.10;75.42;95464.62;1797943;79;21079;-73
2021/10/22 00:44:44;;;;;;;6.03;3.00;;;;;;;12.09;75.34;95472.13;1797050;79;21053;-73
2021/10/22 00:47:11;;;;;;;4.05;3.45;;;;;;;12.10;76.70;95473.41;1787644;79;21504;-73
2021/10/22 00:49:37;;;;;;;6.17;3.30;;;;;;;12.09;76.10;95470.80;1808983;79;21087;-73
2021/10/22 00:52:06;;;;;;;6.17;3.60;;;;;;;12.03;76.41;95475.80;1795192;79;21014;-73
2021/10/22 00:54:32;;;;;;;4.45;3.35;;;;;;;11.99;76.63;95476.78;1808679;79;21018;-74
2021/10/22 00:56:59;;;;;;;4.70;3.72;;;;;;;11.94;76.54;95474.70;1807909;79;21580;-73
2021/10/22 00:59:26;;;;;;;5.47;4.00;;;;;;;11.96;76.34;95483.47;1794030;79;21015;-74
2021/10/22 01:01:53;;;;;;;6.10;4.42;;;;;;;11.90;76.36;95478.36;1793277;79;21101;-74
2021/10/22 01:04:19;;;;;;;6.92;4.05;;;;;;;11.89;77.10;95484.53;1804953;79;21548;-73
2021/10/22 01:06:46;;;;;;;4.58;3.75;;;;;;;11.89;77.78;95495.11;1793536;79;21137;-73
2021/10/22 01:09:13;;;;;;;3.77;3.25;;;;;;;11.82;76.95;95504.95;1792849;79;21064;-73
2021/10/22 01:11:40;;;;;;;6.30;3.00;;;;;;;11.78;77.38;95514.31;1781835;79;21572;-73
2021/10/22 01:14:08;;;;;;;4.67;3.10;;;;;;;11.67;77.12;95506.66;1793424;79;21014;-73
2021/10/22 01:16:41;;;;;;;3.27;2.40;;;;;;;11.59;77.86;95513.45;1780598;79;21026;-73
2021/10/22 01:19:14;;;;;;;3.17;2.20;;;;;;;11.46;77.61;95511.98;1804247;79;21208;-74
2021/10/22 01:21:44;;;;;;;3.27;2.20;;;;;;;11.37;77.71;95520.14;1792272;79;21019;-73
2021/10/22 01:24:10;;;;;;;2.65;2.20;;;;;;;11.25;78.12;95520.81;1779986;79;21052;-73
2021/10/22 01:26:37;;;;;;;4.35;2.30;;;;;;;11.20;78.42;95531.08;1786260;79;21033;-73
2021/10/22 01:29:04;;;;;;;4.70;2.10;;;;;;;11.13;79.21;95540.02;1805111;79;21046;-73
2021/10/22 01:31:31;;;;;;;2.87;2.35;;;;;;;11.05;79.11;95539.73;1801991;79;21014;-74
2021/10/22 01:33:58;;;;;;;4.67;2.20;;;;;;;11.03;79.13;95552.09;1800113;79;21512;-74
2021/10/22 01:36:26;;;;;;;3.33;2.23;;;;;;;11.03;79.22;95560.47;1787037;79;21082;-74
2021/10/22 01:38:54;;;;;;;3.33;2.25;;;;;;;10.98;79.27;95550.45;1802431;79;21085;-74
2021/10/22 01:41:20;;;;;;;3.73;2.50;;;;;;;10.92;80.42;95542.68;1777837;79;21114;-73
2021/10/22 01:43:50;;;;;;;6.33;2.40;;;;;;;10.90;79.59;95543.16;1794161;79;20979;-73
2021/10/22 01:46:17;;;;;;;3.63;2.17;;;;;;;10.86;80.30;95540.15;1800731;79;21085;-73
2021/10/22 01:48:43;;;;;;;3.13;1.90;;;;;;;10.88;80.37;95550.23;1777745;79;21029;-74
2021/10/22 01:51:10;;;;;;;3.13;2.40;;;;;;;10.89;80.87;95548.03;1785835;79;21508;-73
2021/10/22 01:53:36;;;;;;;3.17;2.40;;;;;;;10.92;80.67;95554.56;1805466;79;21071;-74
2021/10/22 01:56:04;;;;;;;4.00;2.40;;;;;;;10.88;80.86;95543.63;1787110;79;21042;-73
2021/10/22 01:58:30;;;;;;;7.08;2.40;;;;;;;10.88;80.77;95544.49;1789967;79;21009;-73
2021/10/22 02:00:57;;;;;;;3.90;2.10;;;;;;;10.96;81.10;95548.30;1787534;79;21019;-73
2021/10/22 02:03:24;;;;;;;3.67;2.30;;;;;;;10.97;80.79;95552.23;1807834;79;21165;-73
2021/10/22 02:05:50;;;;;;;2.97;2.50;;;;;;;11.04;80.70;95552.98;1798019;79;21050;-73
2021/10/22 02:08:17;;;;;;;4.33;2.60;;;;;;;11.10;81.02;95554.62;1794779;79;20975;-71
2021/10/22 02:10:44;;;;;;;6.60;2.80;;;;;;;11.14;81.15;95562.45;1807572;79;21580;-72
2021/10/22 02:13:10;;;;;;;4.00;2.67;;;;;;;11.10;81.34;95565.19;1798364;79;21006;-74
2021/10/22 02:15:37;;;;;;;5.20;2.60;;;;;;;11.08;80.69;95566.98;1808207;79;21038;-73
2021/10/22 02:18:04;;;;;;;5.67;3.40;;;;;;;11.07;80.56;95558.66;1807832;79;21090;-73
2021/10/22 02:20:30;;;;;;;5.27;3.63;;;;;;;11.05;80.96;95565.27;1799336;79;21054;-74
2021/10/22 02:22:57;;;;;;;68.53;35.27;;;;;;;11.02;81.70;95564.02;1786193;79;21069;-74
2021/10/22 02:25:23;;;;;;;6.80;3.60;;;;;;;10.96;81.92;95548.30;1796128;79;21034;-73
2021/10/22 02:27:51;;;;;;;12.70;7.17;;;;;;;10.97;81.77;95542.13;1801545;79;21137;-73
2021/10/22 02:30:20;;;;;;;27.77;11.63;;;;;;;10.95;81.96;95540.83;1788312;79;21021;-73
2021/10/22 02:32:48;;;;;;;11.27;4.77;;;;;;;11.01;81.92;95539.41;1808499;79;21011;-74
2021/10/22 02:35:15;;;;;;;4.57;3.10;;;;;;;11.11;81.94;95550.61;1802851;79;21070;-72
2021/10/22 02:37:45;;;;;;;4.83;2.87;;;;;;;11.16;82.35;95557.12;1794599;79;21022;-73
2021/10/22 02:40:13;;;;;;;3.77;2.50;;;;;;;11.18;82.12;95554.86;1809361;79;21053;-73
2021/10/22 02:42:40;;;;;;;3.73;2.80;;;;;;;11.21;81.92;95563.17;1781131;79;21010;-73
2021/10/22 02:45:08;;;;;;;4.30;3.03;;;;;;;11.22;81.80;95560.97;1788201;79;21027;-73
2021/10/22 02:47:35;;;;;;;4.73;2.47;;;;;;;11.19;81.77;95565.86;1787528;79;21086;-74
2021/10/22 02:50:02;;;;;;;3.67;2.90;;;;;;;11.22;81.81;95571.07;1808593;79;21049;-73
2021/10/22 02:52:29;;;;;;;4.73;3.10;;;;;;;11.24;81.77;95570.59;1799326;79;20974;-74
2021/10/22 02:54:55;;;;;;;5.08;3.30;;;;;;;11.32;81.78;95573.52;1787807;79;21623;-74
2021/10/22 02:57:22;;;;;;;6.60;2.90;;;;;;;11.32;81.55;95577.48;1799678;79;21002;-72
2021/10/22 02:59:49;;;;;;;4.87;2.60;;;;;;;11.19;81.05;95576.42;1794618;79;21098;-73
2021/10/22 03:02:15;;;;;;;4.07;2.60;;;;;;;11.07;80.70;95579.32;1799460;79;21078;-74
2021/10/22 03:04:43;;;;;;;3.67;2.87;;;;;;;10.95;81.18;95586.16;1777768;79;21041;-73
2021/10/22 03:07:10;;;;;;;3.97;3.20;;;;;;;10.86;82.04;95583.70;1794617;79;21006;-74
2021/10/22 03:09:37;;;;;;;3.43;3.13;;;;;;;10.80;83.12;95582.92;1786134;79;21545;-73
2021/10/22 03:12:05;;;;;;;4.20;2.93;;;;;;;10.73;82.73;95581.30;1809195;79;21073;-73
2021/10/22 03:14:31;;;;;;;4.40;3.50;;;;;;;10.71;82.20;95588.83;1790977;79;21011;-73
2021/10/22 03:16:58;;;;;;;5.53;3.43;;;;;;;10.72;81.80;95588.80;1808894;79;21561;-73
2021/10/22 03:19:25;;;;;;;4.77;3.00;;;;;;;10.73;82.04;95588.35;1809108;79;21177;-73
2021/10/22 03:21:52;;;;;;;5.63;3.40;;;;;;;10.71;82.38;95591.47;1783142;79;20999;-73
2021/10/22 03:24:19;;;;;;;7.47;3.77;;;;;;;10.71;82.67;95598.95;1798631;79;21521;-72
2021/10/22 03:26:46;;;;;;;5.53;3.07;;;;;;;10.70;82.76;95598.52;1788151;79;21042;-73
2021/10/22 03:29:12;;;;;;;5.53;3.33;;;;;;;10.69;82.86;95600.75;1801759;79;21125;-73
2021/10/22 03:31:39;;;;;;;4.40;2.90;;;;;;;10.64;82.97;95608.34;1783431;79;21029;-72
2021/10/22 03:34:05;;;;;;;6.33;2.80;;;;;;;10.63;83.49;95609.22;1790882;79;21082;-66
2021/10/22 03:36:34;;;;;;;4.13;3.10;;;;;;;10.61;83.15;95608.81;1808333;79;21022;-68
2021/10/22 03:39:03;;;;;;;6.83;4.93;;;;;;;10.57;83.45;95604.93;1807462;79;21067;-66
2021/10/22 03:41:30;;;;;;;10.73;8.07;;;;;;;10.52;83.87;95605.47;1809466;79;21022;-67
2021/10/22 03:43:56;;;;;;;15.83;10.17;;;;;;;10.50;84.16;95612.08;1798872;79;21488;-66
2021/10/22 03:46:23;;;;;;;16.10;11.00;;;;;;;10.53;84.25;95625.23;1788428;79;21102;-66
2021/10/22 03:48:49;;;;;;;11.93;8.37;;;;;;;10.59;84.29;95630.84;1794940;79;21011;-66
2021/10/22 03:51:18;;;;;;;9.87;5.43;;;;;;;10.62;83.99;95632.09;1781964;79;21109;-66
2021/10/22 03:53:45;;;;;;;5.03;2.33;;;;;;;10.69;84.19;95642.97;1800111;79;21089;-66
2021/10/22 03:56:11;;;;;;;3.40;1.90;;;;;;;10.79;84.02;95645.00;1808652;79;21133;-65
2021/10/22 03:58:38;;;;;;;3.63;1.87;;;;;;;10.87;83.53;95646.17;1797322;79;20967;-65
2021/10/22 04:01:04;;;;;;;30.53;12.53;;;;;;;10.90;83.08;95644.78;1802522;79;21006;-65
2021/10/22 04:03:31;;;;;;;15.17;7.33;;;;;;;10.75;83.74;95611.17;1793320;79;21017;-65
2021/10/22 04:05:58;;;;;;;29.57;13.17;;;;;;;10.54;84.76;95606.31;1793144;79;21089;-65
2021/10/22 04:08:25;;;;;;;32.27;14.40;;;;;;;10.51;84.75;95601.96;1792803;79;21034;-65
2021/10/22 04:10:51;;;;;;;21.90;9.67;;;;;;;10.46;84.69;95606.88;1803858;78;21550;-66
2021/10/22 04:13:18;;;;;;;9.17;3.43;;;;;;;10.46;84.76;95610.83;1799130;79;21006;-66
2021/10/22 04:15:45;;;;;;;4.37;2.60;;;;;;;10.52;84.90;95614.70;1782436;79;21074;-66
2021/10/22 04:18:11;;;;;;;6.47;3.83;;;;;;;10.56;84.72;95598.79;1808365;79;21011;-66
2021/10/22 04:20:38;;;;;;;8.00;5.03;;;;;;;10.52;83.44;95597.55;1804575;79;21042;-66
2021/10/22 04:23:05;;;;;;;7.90;4.50;;;;;;;10.54;84.19;95595.30;1783405;79;21074;-66
2021/10/22 04:25:34;;;;;;;2.20;2.00;;;;;;;10.61;84.07;95598.71;1778216;79;21018;-66
2021/10/22 04:28:02;;;;;;;2.07;1.60;;;;;;;10.60;83.89;95592.53;1792560;79;21102;-66
2021/10/22 04:30:29;;;;;;;3.07;1.53;;;;;;;10.64;83.74;95596.46;1793168;79;21101;-66
2021/10/22 04:32:56;;;;;;;4.13;2.93;;;;;;;10.61;83.56;95598.71;1797733;79;21106;-66
2021/10/22 04:35:22;;;;;;;5.47;4.23;;;;;;;10.67;82.92;95599.04;1796631;79;21038;-66
2021/10/22 04:43:07;;;;;;;5.13;2.10;;;;;;;10.67;81.98;95596.40;1800629;79;21062;-65
2021/10/22 04:45:39;;;;;;;3.20;1.70;;;;;;;10.63;82.29;95597.34;1792805;79;21489;-65
2021/10/22 04:48:09;;;;;;;3.70;2.20;;;;;;;10.61;82.63;95601.34;1794592;79;21069;-65
2021/10/22 04:50:42;;;;;;;3.30;2.30;;;;;;;10.52;82.50;95606.78;1804469;79;21010;-65
2021/10/22 04:53:09;;;;;;;1.70;1.00;;;;;;;10.42;82.26;95605.21;1794025;79;21021;-66
2021/10/22 04:55:39;;;;;;;2.20;0.90;;;;;;;10.35;82.06;95609.25;1787982;79;21065;-67
2021/10/22 04:58:07;;;;;;;1.17;1.00;;;;;;;10.27;82.03;95612.91;1783508;79;21024;-65
2021/10/22 05:00:33;;;;;;;3.20;1.10;;;;;;;10.23;82.23;95608.14;1779219;79;21090;-66
2021/10/22 05:03:00;;;;;;;1.37;0.80;;;;;;;10.18;82.23;95600.30;1781472;79;21010;-67
2021/10/22 05:05:28;;;;;;;1.00;0.77;;;;;;;10.14;81.83;95599.06;1767738;80;21686;-74
2021/10/22 05:07:54;;;;;;;2.03;1.27;;;;;;;10.09;81.62;95597.81;1754688;80;21495;-66
2021/10/22 05:10:21;;;;;;;1.27;1.13;;;;;;;10.04;81.45;95596.16;1759868;80;21090;-67
2021/10/22 05:12:47;;;;;;;1.90;1.20;;;;;;;10.06;81.38;95600.51;1767009;80;21018;-72
2021/10/22 05:15:14;;;;;;;1.67;1.10;;;;;;;10.00;81.11;95601.91;1773488;80;21068;-70
2021/10/22 05:17:40;;;;;;;1.10;0.77;;;;;;;9.97;81.26;95601.52;1759799;80;21026;-69
2021/10/22 05:20:10;;;;;;;2.20;1.70;;;;;;;9.98;81.91;95618.22;1772909;80;21105;-73
2021/10/22 05:22:38;;;;;;;2.87;1.10;;;;;;;9.96;82.68;95627.45;1772687;80;21085;-77
2021/10/22 05:25:07;;;;;;;5.37;2.40;;;;;;;10.00;82.49;95632.67;1775963;79;22242;-79
2021/10/22 05:27:34;;;;;;;3.33;2.03;;;;;;;10.01;82.76;95644.52;1776138;79;21062;-80
2021/10/22 05:30:02;;;;;;;7.37;3.33;;;;;;;10.03;82.69;95643.16;1772509;80;21116;-72
2021/10/22 05:32:28;;;;;;;6.80;3.53;;;;;;;10.05;82.58;95638.74;1783475;80;21524;-71
2021/10/22 05:34:55;;;;;;;5.20;3.63;;;;;;;10.03;82.75;95644.48;1777395;79;21054;-71
2021/10/22 05:37:22;;;;;;;2.40;1.90;;;;;;;9.99;82.62;95651.58;1777555;80;21165;-73
2021/10/22 05:39:49;;;;;;;4.00;2.70;;;;;;;10.04;82.92;95660.73;1782153;80;21094;-70
2021/10/22 05:42:17;;;;;;;6.27;3.87;;;;;;;10.14;83.37;95661.88;1781203;79;21023;-72
2021/10/22 05:44:44;;;;;;;6.97;3.60;;;;;;;10.25;83.16;95670.07;1787140;80;21011;-73
2021/10/22 05:47:12;;;;;;;5.23;2.83;;;;;;;10.25;82.88;95680.62;1787067;80;21030;-71
2021/10/22 05:49:40;;;;;;;3.90;2.83;;;;;;;10.31;82.96;95679.25;1772219;79;21114;-70
2021/10/22 05:52:07;;;;;;;4.70;2.50;;;;;;;10.39;83.01;95690.54;1778681;79;21426;-69
2021/10/22 05:54:34;;;;;;;1.93;1.20;;;;;;;10.43;82.89;95692.21;1781795;79;20983;-74
2021/10/22 05:57:01;;;;;;;2.63;1.43;;;;;;;10.48;82.03;95700.05;1770292;79;21042;-68
2021/10/22 05:59:27;;;;;;;4.07;2.50;;;;;;;10.44;81.23;95702.34;1763857;80;21008;-73
2021/10/22 06:01:55;;;;;;;4.67;2.40;;;;;;;10.42;81.55;95699.72;1744283;80;21044;-72
2021/10/22 06:04:21;;;;;;;2.10;1.90;;;;;;;10.44;81.94;95710.25;1750368;80;21497;-71
2021/10/22 06:06:48;;;;;;;2.47;1.30;;;;;;;10.45;81.59;95728.67;1753962;81;21459;-70
2021/10/22 06:09:14;;;;;;;1.87;1.40;;;;;;;10.50;81.75;95725.97;1762168;81;20980;-70
2021/10/22 06:11:41;;;;;;;4.57;1.50;;;;;;;10.57;81.46;95719.24;1747623;81;21026;-69
2021/10/22 06:14:08;;;;;;;3.23;1.90;;;;;;;10.64;81.55;95722.66;1746508;81;21071;-70
2021/10/22 06:16:35;;;;;;;4.67;2.70;;;;;;;10.68;79.90;95727.43;1743011;81;21070;-71
2021/10/22 06:19:03;;;;;;;3.77;2.07;;;;;;;10.71;79.16;95737.50;1760612;81;21086;-70
2021/10/22 06:21:51;;;;;;;2.40;1.57;;;;;;;10.71;80.08;95737.50;1757355;81;21035;-70
2021/10/22 06:24:05;;;;;;;5.90;2.47;;;;;;;10.74;80.30;95736.12;1751253;81;21000;-72
2021/10/22 06:26:39;;;;;;;4.67;1.80;;;;;;;10.78;79.22;95741.75;1753474;81;21106;-71
2021/10/22 06:29:08;;;;;;;2.70;1.60;;;;;;;10.82;79.34;95747.41;1760843;81;21102;-72
2021/10/22 06:31:40;;;;;;;2.20;1.70;;;;;;;10.89;79.15;95753.92;1763633;81;21022;-72
2021/10/22 06:34:04;;;;;;;1.63;1.47;;;;;;;11.01;78.42;95749.30;1756063;81;21046;-72
2021/10/22 06:36:31;;;;;;;1.60;1.00;;;;;;;11.18;77.31;95734.91;1752184;81;21071;-71
2021/10/22 06:38:58;;;;;;;2.33;1.13;;;;;;;11.43;75.18;95732.66;1756342;81;21086;-71
2021/10/22 06:41:25;;;;;;;5.90;4.55;;;;;;;11.63;72.30;95732.27;1757622;80;21118;-71
2021/10/22 06:43:52;;;;;;;8.53;7.03;;;;;;;11.83;70.86;95722.14;1764155;81;21084;-70
2021/10/22 06:46:19;;;;;;;2.27;0.90;;;;;;;12.04;71.66;95724.80;1757133;81;21018;-70
2021/10/22 06:48:47;;;;;;;2.58;1.10;;;;;;;12.14;70.12;95721.49;1751912;81;21016;-71
2021/10/22 06:51:16;;;;;;;4.28;3.50;;;;;;;12.16;70.43;95720.15;1755233;81;21141;-70
2021/10/22 06:53:44;;;;;;;10.00;8.83;;;;;;;12.16;70.66;95709.56;1754608;81;21501;-70
2021/10/22 06:56:11;;;;;;;3.55;2.35;;;;;;;12.12;71.51;95713.61;1731866;81;21128;-71
2021/10/22 06:58:37;;;;;;;3.95;1.98;;;;;;;12.03;71.36;95722.20;1753167;81;21477;-71
2021/10/22 07:01:04;;;;;;;1.15;0.60;;;;;;;11.94;70.78;95728.55;1761636;81;21118;-72
2021/10/22 07:03:42;;;;;;;2.25;0.72;;;;;;;11.96;68.70;95732.48;1756181;81;20980;-69
2021/10/22 07:08:26;;;;;;;3.42;0.80;;;;;;;12.07;65.62;95723.85;1759380;81;21011;-71
2021/10/22 07:10:53;;;;;;;13.05;6.62;;;;;;;12.12;66.72;95725.97;1758180;81;21615;-74
2021/10/22 07:13:23;;;;;;;7.72;5.47;;;;;;;12.14;65.37;95726.78;1758371;81;21043;-71
2021/10/22 07:15:50;;;;;;;8.48;4.05;;;;;;;12.20;66.99;95736.38;1757669;81;21034;-68
2021/10/22 07:18:17;;;;;;;4.58;2.52;;;;;;;12.24;67.32;95726.98;1761472;81;21086;-68
2021/10/22 07:20:44;;;;;;;4.47;3.00;;;;;;;12.26;66.40;95734.44;1754400;81;21106;-73
2021/10/22 07:23:11;;;;;;;2.50;1.05;;;;;;;12.27;66.57;95737.53;1760967;80;20999;-70
2021/10/22 07:25:40;;;;;;;2.25;1.07;;;;;;;12.34;65.21;95743.06;1773049;80;21097;-71
2021/10/22 07:28:12;;;;;;;1.40;0.78;;;;;;;12.47;65.50;95746.75;1765657;80;21610;-70
2021/10/22 07:30:44;;;;;;;0.93;0.62;;;;;;;12.54;61.76;95748.35;1767230;80;21001;-70
2021/10/22 07:33:18;;;;;;;1.17;0.55;;;;;;;12.55;59.63;95754.95;1773562;81;21066;-69
2021/10/22 07:35:42;;;;;;;1.40;0.85;;;;;;;12.58;62.17;95763.27;1769164;80;21073;-71
2021/10/22 07:38:10;;;;;;;0.80;0.30;;;;;;;12.62;63.13;95775.50;1774708;80;21492;-73
2021/10/22 07:40:42;;;;;;;1.57;0.78;;;;;;;12.60;56.17;95764.53;1769885;80;21046;-70
2021/10/22 07:43:09;;;;;;;1.22;0.40;;;;;;;12.59;56.47;95774.27;1772432;80;21053;-70
2021/10/22 07:45:36;;;;;;;1.55;0.47;;;;;;;12.65;56.57;95774.13;1764890;80;21013;-72
2021/10/22 07:48:04;;;;;;;4.33;0.55;;;;;;;12.69;57.93;95765.66;1766714;80;22099;-71
2021/10/22 07:50:31;;;;;;;1.07;0.42;;;;;;;12.74;56.00;95763.30;1774958;81;21054;-74
2021/10/22 07:52:57;;;;;;;0.68;0.40;;;;;;;12.77;56.28;95765.90;1763791;80;21048;-73
2021/10/22 07:55:24;;;;;;;2.35;0.42;;;;;;;12.78;58.71;95757.03;1748497;81;21081;-72
2021/10/22 07:57:51;;;;;;;1.92;0.53;;;;;;;12.77;58.69;95761.03;1771228;80;21097;-72
2021/10/22 08:00:18;;;;;;;1.17;0.45;;;;;;;12.75;60.44;95769.45;1772610;81;21030;-72
2021/10/22 08:02:45;;;;;;;2.02;0.82;;;;;;;12.71;60.79;95770.00;1768530;81;21072;-75
2021/10/22 08:05:12;;;;;;;1.25;0.90;;;;;;;12.68;61.45;95778.48;1767323;80;21076;-70
2021/10/22 08:07:41;;;;;;;1.27;0.50;;;;;;;12.62;61.84;95785.23;1766235;80;21625;-72
2021/10/22 08:10:09;;;;;;;3.30;0.50;;;;;;;12.58;59.84;95797.68;1768101;80;21010;-71
2021/10/22 08:12:37;;;;;;;1.27;0.90;;;;;;;12.55;59.94;95802.59;1777158;81;21030;-71
2021/10/22 08:15:05;;;;;;;3.02;1.30;;;;;;;12.54;60.56;95812.74;1775719;81;21133;-71
2021/10/22 08:17:33;;;;;;;2.92;0.80;;;;;;;12.54;60.19;95815.39;1764790;80;21033;-69
2021/10/22 08:20:09;;;;;;;4.95;0.62;;;;;;;12.60;60.52;95815.73;1771407;81;21120;-68
2021/10/22 08:22:34;;;;;;;1.47;0.70;;;;;;;12.62;59.06;95822.29;1766815;80;21140;-69
2021/10/22 08:25:12;;;;;;;1.05;0.50;;;;;;;12.66;57.08;95823.52;1773020;80;21026;-74
2021/10/22 08:27:46;;;;;;;1.30;0.60;;;;;;;12.69;54.96;95824.76;1766905;80;21646;-75
2021/10/22 08:30:16;;;;;;;;;;;;;;;12.73;56.03;95826.44;1771367;80;21078;-73
2021/10/22 08:32:49;;;;;;;5.90;1.42;;;;;;;12.75;57.59;95827.28;1770584;80;20394;-69
2021/10/22 08:35:13;;;;;;;3.65;1.12;;;;;;;12.72;55.62;95831.76;1734593;80;21107;-70
2021/10/22 08:37:39;;;;;;;1.50;1.15;;;;;;;12.72;55.11;95834.41;1776016;80;21024;-80
2021/10/22 08:40:08;;;;;;;3.20;1.37;;;;;;;12.65;55.02;95828.83;1780190;80;21028;-73
2021/10/22 08:42:35;;;;;;;1.40;0.82;;;;;;;12.63;55.20;95835.96;1780407;80;21035;-72
2021/10/22 08:45:01;;;;;;;1.80;1.10;;;;;;;12.59;55.76;95844.41;1781116;80;20992;-79
2021/10/22 08:47:31;;;;;;;6.40;2.65;;;;;;;12.56;54.57;95840.05;1781029;80;21087;-80
2021/10/22 08:50:00;;;;;;;2.35;0.93;;;;;;;12.56;54.70;95840.52;1780851;80;21107;-81
2021/10/22 08:52:29;;;;;;;1.42;0.80;;;;;;;12.55;55.01;95846.72;1780340;80;21105;-83
2021/10/22 08:54:59;;;;;;;2.02;1.10;;;;;;;12.55;55.84;95842.30;1753919;80;21071;-78
2021/10/22 08:57:27;;;;;;;1.55;0.45;;;;;;;12.51;54.30;95844.58;1753054;80;21505;-80
2021/10/22 08:59:57;;;;;;;1.42;0.65;;;;;;;12.54;55.41;95847.61;1753885;80;21102;-71
2021/10/22 09:02:25;;;;;;;1.27;0.70;;;;;;;12.62;55.13;95845.66;1779777;80;21075;-75
2021/10/22 09:05:00;;;;;;;3.55;0.80;;;;;;;12.80;55.37;95828.93;1771614;80;21063;-68
2021/10/22 09:07:46;;;;;;;1.92;0.80;;;;;;;12.92;54.30;95842.75;1772152;80;21052;-69
2021/10/22 09:10:18;;;;;;;1.00;0.50;;;;;;;13.03;54.39;95841.62;1771717;80;21102;-70
2021/10/22 09:12:59;;;;;;;1.75;0.78;;;;;;;13.10;51.43;95842.79;1776954;80;21091;-69
2021/10/22 09:15:38;;;;;;;8.53;3.80;;;;;;;13.17;50.52;95828.45;1770508;80;21059;-69
2021/10/22 09:18:19;;;;;;;3.40;1.22;;;;;;;13.47;51.57;95842.34;1737295;80;21516;-68
2021/10/22 09:21:00;;;;;;;2.95;1.40;;;;;;;13.67;48.63;95832.07;1750079;80;21023;-69
2021/10/22 09:23:38;;;;;;;1.60;0.50;;;;;;;14.09;49.82;95833.59;1778693;80;21001;-70
2021/10/22 09:26:19;;;;;;;1.12;0.70;;;;;;;14.51;50.37;95823.48;1777027;79;21083;-68
2021/10/22 09:28:46;;;;;;;5.85;0.93;;;;;;;14.92;49.42;95834.66;1779368;80;21109;-69
2021/10/22 09:31:18;;;;;;;1.95;0.70;;;;;;;15.28;48.55;95821.95;1784797;80;21125;-70
2021/10/22 09:33:59;;;;;;;1.80;0.75;;;;;;;15.63;50.18;95822.54;1767662;80;20970;-68
2021/10/22 09:36:43;;;;;;;2.70;0.70;;;;;;;15.75;44.00;95830.13;1783577;80;20973;-70
2021/10/22 09:39:18;;;;;;;2.42;0.65;;;;;;;15.98;45.76;95839.95;1713312;82;20999;-70
2021/10/22 09:41:54;;;;;;;1.00;0.57;;;;;;;16.40;46.17;95840.64;1718300;82;21085;-69
2021/10/22 09:44:24;;;;;;;1.87;0.50;;;;;;;16.64;45.56;95832.17;1736357;82;21520;-70
2021/10/22 09:47:14;;;;;;;5.40;0.80;;;;;;;16.65;44.52;95833.03;1743856;82;21106;-70
2021/10/22 09:49:48;;;;;;;1.27;0.62;;;;;;;16.55;41.48;95838.30;1728906;82;21021;-71
2021/10/22 09:52:25;;;;;;;1.98;0.68;;;;;;;16.31;40.52;95825.47;1721988;82;21117;-70
2021/10/22 09:55:17;;;;;;;1.52;0.57;;;;;;;16.31;40.52;95825.47;1741953;82;21120;-70
2021/10/22 09:57:50;;;;;;;1.62;0.60;;;;;;;16.48;40.68;95834.13;1718716;82;21045;-70
2021/10/22 10:00:22;;;;;;;2.77;0.53;;;;;;;16.77;40.59;95831.22;1739955;82;21046;-69
2021/10/22 10:02:49;;;;;;;1.85;0.40;;;;;;;16.83;37.70;95839.47;1713400;82;21551;-69
2021/10/22 10:05:18;;;;;;;1.82;0.60;;;;;;;16.91;40.24;95820.06;1731575;82;21021;-70
2021/10/22 10:07:46;;;;;;;2.33;0.60;;;;;;;16.93;38.90;95827.52;1744410;82;21050;-69
2021/10/22 10:10:14;;;;;;;1.60;0.50;;;;;;;16.47;37.65;95823.09;1733859;82;21508;-70
2021/10/22 10:12:41;;;;;;;2.42;0.80;;;;;;;16.40;38.79;95829.99;1743367;82;21069;-69
2021/10/22 10:15:11;;;;;;;0.68;0.60;;;;;;;16.06;38.20;95827.70;1744909;82;21035;-70
2021/10/22 10:17:46;;;;;;;1.45;0.95;;;;;;;16.03;39.45;95825.16;1744214;82;21042;-70
2021/10/22 10:20:18;;;;;;;2.35;1.10;;;;;;;16.03;39.45;95825.16;1720425;82;21587;-71
2021/10/22 10:22:48;;;;;;;3.92;1.32;;;;;;;16.17;39.51;95837.95;1733536;82;21054;-70
2021/10/22 10:25:18;;;;;;;2.75;0.88;;;;;;;16.43;39.03;95829.88;1737176;82;21102;-70
2021/10/22 10:27:50;;;;;;;1.90;0.90;;;;;;;16.89;38.48;95829.91;1715487;82;21023;-70
2021/10/22 10:30:33;;;;;;;1.23;0.53;;;;;;;17.41;37.87;95824.24;1729613;82;21034;-70
2021/10/22 10:33:05;;;;;;;;;;;;;;;17.42;37.03;95814.00;1741517;82;21102;-70
2021/10/22 10:35:42;;;;;;;2.00;0.70;;;;;;;17.65;38.00;95812.54;1728813;82;20392;-70
2021/10/22 10:38:12;;;;;;;1.90;0.60;;;;;;;17.50;35.88;95801.19;1743380;82;21086;-69
2021/10/22 10:40:39;;;;;;;3.30;0.70;;;;;;;17.43;37.38;95799.24;1744121;82;21003;-70
2021/10/22 10:43:20;;;;;;;3.87;0.60;;;;;;;17.23;37.99;95815.21;1723186;82;21025;-68
2021/10/22 10:45:47;;;;;;;1.42;0.90;;;;;;;17.21;37.10;95809.96;1719073;82;21029;-69
2021/10/22 10:48:20;;;;;;;3.33;0.80;;;;;;;17.37;37.09;95801.31;1715191;82;21041;-70
2021/10/22 10:51:08;;;;;;;;;;;;;;;17.57;39.86;95797.81;1731371;82;21042;-69
2021/10/22 10:53:43;;;;;;;2.50;0.70;;;;;;;17.67;38.62;95796.00;1740747;82;20138;-70
2021/10/22 10:56:33;;;;;;;0.80;0.65;;;;;;;17.95;39.34;95798.83;1738865;82;21607;-70
2021/10/22 10:59:00;;;;;;;6.15;2.37;;;;;;;18.59;36.96;95791.01;1738460;82;21847;-69
2021/10/22 11:01:39;;;;;;;2.20;0.80;;;;;;;19.14;37.57;95796.89;1743902;82;21027;-70
2021/10/22 11:04:03;;;;;;;1.50;0.90;;;;;;;19.20;37.64;95802.81;1735366;82;20999;-70
2021/10/22 11:06:46;;;;;;;1.30;0.78;;;;;;;19.15;36.84;95792.81;1729446;82;21009;-71
2021/10/22 11:09:17;;;;;;;1.67;0.65;;;;;;;19.63;35.96;95789.95;1740105;82;21517;-71
2021/10/22 11:11:59;;;;;;;2.90;0.98;;;;;;;20.40;34.57;95789.09;1739808;82;21118;-69
2021/10/22 11:14:26;;;;;;;1.45;0.78;;;;;;;20.35;33.72;95796.51;1743409;82;21043;-69
2021/10/22 11:16:56;;;;;;;2.90;0.80;;;;;;;20.44;33.61;95791.52;1726304;82;21145;-68
2021/10/22 11:19:33;;;;;;;3.72;0.70;;;;;;;21.00;33.72;95785.81;1743605;80;21073;-69
2021/10/22 11:22:07;;;;;;;2.08;0.70;;;;;;;21.37;32.23;95790.79;1775234;80;21082;-68
2021/10/22 11:24:37;;;;;;;2.90;0.82;;;;;;;21.68;31.48;95783.64;1774805;81;21536;-68
2021/10/22 11:27:11;;;;;;;2.65;0.82;;;;;;;21.58;30.60;95782.46;1770003;80;21062;-69
2021/10/22 11:29:45;;;;;;;0.80;0.65;;;;;;;21.81;32.09;95783.77;1773024;80;21092;-68
2021/10/22 11:32:15;;;;;;;3.98;0.80;;;;;;;22.00;31.14;95776.83;1770813;80;20998;-68
2021/10/22 11:34:50;;;;;;;1.87;0.88;;;;;;;21.95;29.65;95772.21;1777301;81;21022;-68
2021/10/22 11:37:21;;;;;;;2.12;0.70;;;;;;;22.01;29.14;95767.80;1778729;81;21015;-68
2021/10/22 11:39:51;;;;;;;1.07;0.55;;;;;;;22.49;29.57;95767.08;1776976;81;21461;-68
2021/10/22 11:42:32;;;;;;;1.20;0.55;;;;;;;22.36;28.44;95765.64;1766414;80;21057;-68
2021/10/22 11:45:05;;;;;;;0.93;0.53;;;;;;;22.21;28.32;95767.45;1744070;80;21022;-68
2021/10/22 11:47:45;;;;;;;2.17;0.90;;;;;;;22.08;28.38;95769.16;1769245;80;21105;-69
2021/10/22 11:50:34;;;;;;;2.75;0.80;;;;;;;21.94;30.53;95762.41;1771357;80;21548;-68